CheckWX is a tool to help pilots better visualize weather data.  It is not intended as a substitute for an official pre-flight weather briefing.

13:04:46 UTC

KTRI TAF
Tri-Cities Airport
Bristol/Johnson/Kingsport, Tennessee, USA
KTRI 241120Z 2412/2512 00000KT P6SM SKC FM241700 25010KT P6SM FEW050 FM250000 00000KT P6SM FEW050

May-24@
12:00 UTC

May-24 @ 12:00 UTC

May-24@
17:00 UTC

May-24 @ 17:00 UTC

KTRI 241120Z 2412/2512 00000KT P6SM SKC
Cloud Levels
  • Clear skies

May-24@
17:00 UTC

May-24 @ 17:00 UTC

May-25@
00:00 UTC

May-25 @ 00:00 UTC

FM241700 25010KT P6SM FEW050

From

From Standard forecast or significant change

Wind
  • 250° at 10 KTS
Cloud Levels
  • Few at 5,000' AGL

May-25@
00:00 UTC

May-25 @ 00:00 UTC

May-25@
12:00 UTC

May-25 @ 12:00 UTC

FM250000 00000KT P6SM FEW050

From

From Standard forecast or significant change

Cloud Levels
  • Few at 5,000' AGL